Wayland, Missouri
Current Conditions -  °F | °C
As of 6:35 AM on Sunday 23 Nov 2014 (Local Time) from KEOK Reporting Station
Light Rain Light Rain  
Wind Chill: 50°   Ceiling: 2500
Heat Index: 50°   Visibility: 4mi
Dew Point: 50°   Wind: 9mph
Humidity: 100%   Direction: 150°SSE
Pressure: 29.63"   Gusts: NA
Location:  40.39°N, 91.58°W
Report Text: KEOK 231235Z AUTO 15008KT 4SM -RA SCT021 BKN025 OVC029 10/10 A2963 RMK AO2
Loading
Personal Weather Stations






























Interactive Weather Map New forecast layout! Learn more

10-Day Weather Forecast

Advertisements
Track Severe Weather on mobile